createdAt,value
2022-09-20T00:01:14.705Z,88.92
2022-09-20T00:03:43.630Z,89.05
2022-09-20T00:06:15.458Z,88.80
2022-09-20T00:08:42.269Z,88.88
2022-09-20T00:11:11.727Z,89.16
2022-09-20T00:13:39.166Z,89.47
2022-09-20T00:16:07.788Z,89.32
2022-09-20T00:18:34.420Z,89.69
2022-09-20T00:21:00.925Z,89.49
2022-09-20T00:23:27.295Z,89.53
2022-09-20T00:26:11.915Z,89.54
2022-09-20T00:28:38.379Z,89.38
2022-09-20T00:31:04.983Z,89.76
2022-09-20T00:33:49.746Z,89.48
2022-09-20T00:36:16.650Z,89.87
2022-09-20T00:38:43.055Z,89.54
2022-09-20T00:41:10.549Z,90.03
2022-09-20T00:43:46.750Z,89.88
2022-09-20T00:46:36.851Z,89.70
2022-09-20T00:49:17.895Z,90.09
2022-09-20T00:51:51.028Z,89.97
2022-09-20T00:54:20.818Z,89.97
2022-09-20T00:56:48.682Z,90.41
2022-09-20T00:59:37.650Z,89.92
2022-09-20T01:02:18.351Z,90.17
2022-09-20T01:04:47.384Z,90.10
2022-09-20T01:07:17.295Z,89.83
2022-09-20T01:09:43.781Z,90.10
2022-09-20T01:12:14.985Z,90.18
2022-09-20T01:14:43.950Z,90.38
2022-09-20T01:17:11.589Z,90.54
2022-09-20T01:20:06.187Z,90.50
2022-09-20T01:23:07.644Z,90.41
2022-09-20T01:25:36.716Z,90.44
2022-09-20T01:28:03.204Z,90.47
2022-09-20T01:30:38.777Z,90.67
2022-09-20T01:33:27.711Z,90.77
2022-09-20T01:35:56.548Z,90.79
2022-09-20T01:38:43.284Z,90.84
2022-09-20T01:41:16.759Z,90.64
2022-09-20T01:44:04.295Z,90.74
2022-09-20T01:46:36.070Z,90.36
2022-09-20T01:49:11.109Z,90.60
2022-09-20T01:51:55.885Z,90.71
2022-09-20T01:54:57.940Z,90.62
2022-09-20T01:58:05.516Z,90.61
2022-09-20T02:01:03.964Z,90.68
2022-09-20T02:03:52.340Z,90.78
2022-09-20T02:06:46.578Z,90.60
2022-09-20T02:09:21.297Z,90.52
2022-09-20T02:12:10.073Z,90.71
2022-09-20T02:14:45.670Z,90.55
2022-09-20T02:17:38.961Z,90.89
2022-09-20T02:20:28.314Z,90.78
2022-09-20T02:23:19.080Z,90.96
2022-09-20T02:25:57.787Z,90.81
2022-09-20T02:28:55.001Z,90.90
2022-09-20T02:31:30.953Z,90.83
2022-09-20T02:34:15.192Z,90.81
2022-09-20T02:37:03.184Z,90.90
2022-09-20T02:39:37.015Z,91.07
2022-09-20T02:42:18.305Z,91.07
2022-09-20T02:44:47.517Z,91.14
2022-09-20T02:47:20.915Z,90.79
2022-09-20T02:50:21.432Z,90.88
2022-09-20T02:53:25.121Z,91.04
2022-09-20T02:56:07.048Z,91.07
2022-09-20T02:58:46.987Z,90.98
2022-09-20T03:01:19.945Z,91.17
2022-09-20T03:04:06.620Z,91.31
2022-09-20T03:07:14.685Z,91.15
2022-09-20T03:09:51.617Z,91.08
2022-09-20T03:12:49.297Z,91.42
2022-09-20T03:15:46.524Z,91.12
2022-09-20T03:18:17.673Z,91.54
2022-09-20T03:21:02.666Z,91.01
2022-09-20T03:23:44.257Z,91.10
2022-09-20T03:26:30.814Z,90.80
2022-09-20T03:29:02.740Z,91.05
2022-09-20T03:31:38.503Z,90.97
2022-09-20T03:34:14.058Z,90.83
2022-09-20T03:37:07.776Z,90.94
2022-09-20T03:40:06.257Z,90.92
2022-09-20T03:42:32.983Z,90.98
2022-09-20T03:45:20.336Z,90.97
2022-09-20T03:48:17.159Z,91.30
2022-09-20T03:51:01.175Z,91.40
2022-09-20T03:53:51.970Z,91.55
2022-09-20T03:56:40.283Z,91.53
2022-09-20T03:59:25.278Z,91.72
2022-09-20T04:02:20.801Z,91.50
2022-09-20T04:05:12.771Z,91.66
2022-09-20T04:08:06.360Z,91.87
2022-09-20T04:11:03.653Z,91.53
2022-09-20T04:13:40.333Z,91.23
2022-09-20T04:16:22.347Z,91.06
2022-09-20T04:19:00.817Z,90.61
2022-09-20T04:21:43.723Z,90.47
2022-09-20T04:24:23.454Z,90.50
2022-09-20T04:27:10.096Z,90.71
2022-09-20T04:29:59.269Z,90.58
2022-09-20T04:32:35.522Z,90.72
2022-09-20T04:35:32.955Z,90.42
2022-09-20T04:38:05.536Z,90.26
2022-09-20T04:40:41.264Z,90.52
2022-09-20T04:43:32.918Z,90.71
2022-09-20T04:46:20.828Z,90.73
2022-09-20T04:49:18.039Z,90.84
2022-09-20T04:52:04.078Z,91.01
2022-09-20T04:55:04.397Z,90.85
2022-09-20T04:58:21.082Z,90.92
2022-09-20T05:00:47.381Z,90.99
2022-09-20T05:03:27.596Z,90.87
2022-09-20T05:06:15.933Z,91.13
2022-09-20T05:08:58.805Z,91.18
2022-09-20T05:11:31.466Z,91.20
2022-09-20T05:14:02.344Z,91.37
2022-09-20T05:17:00.095Z,91.41
2022-09-20T05:19:31.739Z,91.46
2022-09-20T05:22:13.297Z,91.31
2022-09-20T05:25:14.765Z,91.48
2022-09-20T05:27:54.167Z,91.37
2022-09-20T05:30:26.751Z,91.50
2022-09-20T05:33:05.655Z,91.38
2022-09-20T05:35:49.066Z,91.39
2022-09-20T05:38:43.443Z,91.32
2022-09-20T05:41:17.520Z,91.20
2022-09-20T05:44:21.292Z,91.57
2022-09-20T05:46:58.824Z,91.70
2022-09-20T05:49:52.593Z,91.17
2022-09-20T05:52:46.989Z,90.86
2022-09-20T05:55:38.186Z,90.95
2022-09-20T05:58:29.531Z,90.51
2022-09-20T06:01:04.309Z,90.32
2022-09-20T06:03:43.305Z,90.54
2022-09-20T06:06:32.398Z,89.88
2022-09-20T06:09:34.180Z,90.33
2022-09-20T06:12:21.917Z,89.67
2022-09-20T06:15:02.147Z,89.46
2022-09-20T06:17:34.857Z,89.86
2022-09-20T06:20:49.432Z,89.61
2022-09-20T06:23:16.229Z,88.98
2022-09-20T06:25:49.724Z,88.57
2022-09-20T06:28:39.754Z,88.16
2022-09-20T06:31:10.118Z,88.01
2022-09-20T06:33:49.934Z,87.70
2022-09-20T06:36:44.124Z,87.78
2022-09-20T06:39:39.003Z,87.84
2022-09-20T06:42:06.531Z,86.87
2022-09-20T06:44:32.859Z,87.21
2022-09-20T06:46:59.623Z,86.91
2022-09-20T06:49:27.256Z,87.46
2022-09-20T06:51:55.798Z,87.91
2022-09-20T06:54:23.201Z,87.37
2022-09-20T06:56:51.208Z,87.53
2022-09-20T06:59:17.577Z,87.43
2022-09-20T07:01:44.361Z,87.40
2022-09-20T07:04:10.808Z,87.76
2022-09-20T07:06:37.326Z,87.34
2022-09-20T07:09:05.075Z,87.57
2022-09-20T07:11:35.048Z,87.16
2022-09-20T07:14:01.855Z,86.54
2022-09-20T07:16:28.537Z,86.17
2022-09-20T07:18:56.750Z,85.17
2022-09-20T07:21:23.802Z,84.19
2022-09-20T07:23:51.243Z,82.22
2022-09-20T07:26:23.342Z,81.15
2022-09-20T07:28:50.546Z,81.04
2022-09-20T07:31:19.245Z,79.95
2022-09-20T07:33:46.140Z,79.05
2022-09-20T07:36:13.446Z,79.15
2022-09-20T07:38:40.624Z,78.23
2022-09-20T07:41:07.477Z,77.91
2022-09-20T07:43:33.969Z,77.88
2022-09-20T07:46:00.388Z,78.48
2022-09-20T07:48:30.189Z,78.26
2022-09-20T07:51:04.738Z,77.54
2022-09-20T07:53:34.844Z,75.19
2022-09-20T07:56:13.687Z,73.31
2022-09-20T07:58:41.509Z,71.84
2022-09-20T08:01:12.575Z,69.19
2022-09-20T08:03:40.430Z,68.44
2022-09-20T08:06:10.010Z,68.63
2022-09-20T08:08:38.032Z,68.75
2022-09-20T08:11:10.377Z,69.20
2022-09-20T08:14:08.266Z,69.38
2022-09-20T08:16:40.829Z,67.56
2022-09-20T08:19:07.340Z,68.63
2022-09-20T08:21:35.337Z,68.75
2022-09-20T08:24:02.588Z,68.82
2022-09-20T08:26:31.435Z,68.97
2022-09-20T08:28:59.464Z,68.68
2022-09-20T08:31:28.362Z,68.17
2022-09-20T08:33:55.020Z,68.18
2022-09-20T08:36:24.487Z,67.01
2022-09-20T08:41:46.058Z,67.93
2022-09-20T08:44:35.191Z,68.28
2022-09-20T08:47:22.581Z,69.08
2022-09-20T08:49:56.685Z,69.86
2022-09-20T08:52:36.953Z,70.48
2022-09-20T08:55:17.801Z,71.51
2022-09-20T08:57:48.983Z,72.21
2022-09-20T09:00:33.648Z,72.70
2022-09-20T09:03:05.581Z,70.91
2022-09-20T09:05:39.000Z,69.68
2022-09-20T09:08:18.582Z,66.23
2022-09-20T09:10:48.049Z,63.70
2022-09-20T09:13:25.925Z,60.47
2022-09-20T09:16:06.551Z,58.90
2022-09-20T09:18:37.445Z,59.03
2022-09-20T09:21:06.141Z,57.65
2022-09-20T09:23:43.898Z,55.53
2022-09-20T09:26:21.074Z,55.14
2022-09-20T09:28:48.373Z,56.83
2022-09-20T09:31:25.894Z,57.97
2022-09-20T09:33:52.401Z,58.80
2022-09-20T09:36:25.979Z,59.92
2022-09-20T09:39:16.225Z,60.09
2022-09-20T09:41:43.270Z,60.74
2022-09-20T09:44:27.717Z,62.22
2022-09-20T09:46:56.716Z,62.75
2022-09-20T09:49:25.808Z,62.84
2022-09-20T09:52:04.779Z,62.83
2022-09-20T09:54:48.846Z,63.60
2022-09-20T09:57:55.644Z,60.96
2022-09-20T10:00:27.265Z,59.30
2022-09-20T10:03:07.118Z,58.54
2022-09-20T10:05:51.932Z,60.08
2022-09-20T10:08:56.910Z,60.67
2022-09-20T10:12:07.918Z,61.52
2022-09-20T10:14:56.291Z,61.65
2022-09-20T10:17:34.216Z,62.41
2022-09-20T10:20:36.146Z,62.64
2022-09-20T10:23:58.662Z,60.91
2022-09-20T10:26:43.808Z,61.53
2022-09-20T10:29:28.902Z,61.60
2022-09-20T10:32:16.250Z,66.46
2022-09-20T10:35:10.691Z,66.67
2022-09-20T10:38:05.121Z,68.91
2022-09-20T10:40:53.205Z,69.02
2022-09-20T10:43:40.201Z,71.39
2022-09-20T10:46:34.106Z,71.12
2022-09-20T10:49:18.065Z,73.87
2022-09-20T10:51:54.564Z,76.25
2022-09-20T10:54:38.262Z,76.81
2022-09-20T10:57:22.965Z,74.65
2022-09-20T11:00:20.677Z,73.51
2022-09-20T11:03:12.005Z,72.62
2022-09-20T11:05:38.449Z,71.18
2022-09-20T11:08:13.204Z,70.69
2022-09-20T11:10:46.185Z,69.76
2022-09-20T11:13:33.900Z,71.56
2022-09-20T11:16:11.498Z,69.14
2022-09-20T11:18:47.210Z,69.74
2022-09-20T11:21:28.428Z,69.73
2022-09-20T11:24:14.998Z,70.40
2022-09-20T11:26:48.182Z,68.29
2022-09-20T11:29:33.238Z,67.20
2022-09-20T11:32:13.920Z,65.70
2022-09-20T11:34:56.335Z,63.24
2022-09-20T11:37:28.790Z,56.17
2022-09-20T11:39:56.006Z,56.70
2022-09-20T11:42:36.660Z,53.64
2022-09-20T11:45:04.246Z,53.71
2022-09-20T11:47:53.517Z,52.06
2022-09-20T11:50:38.310Z,49.88
2022-09-20T11:53:53.377Z,49.70
2022-09-20T11:56:28.796Z,50.18
2022-09-20T11:58:59.573Z,50.50
2022-09-20T12:01:28.752Z,50.25
2022-09-20T12:04:30.614Z,52.85
2022-09-20T12:07:18.409Z,52.95
2022-09-20T12:10:01.040Z,52.84
2022-09-20T12:12:39.533Z,57.13
2022-09-20T12:15:22.098Z,58.92
2022-09-20T12:17:48.423Z,60.81
2022-09-20T12:20:32.956Z,61.85
2022-09-20T12:23:36.747Z,65.21
2022-09-20T12:26:21.637Z,67.50
2022-09-20T12:28:53.265Z,68.84
2022-09-20T12:31:20.249Z,71.18
2022-09-20T12:34:10.687Z,71.87
2022-09-20T12:36:46.254Z,69.84
2022-09-20T12:39:15.163Z,69.35
2022-09-20T12:41:48.407Z,69.07
2022-09-20T12:44:38.022Z,66.37
2022-09-20T12:47:10.267Z,66.21
2022-09-20T12:50:08.042Z,65.44
2022-09-20T12:52:58.605Z,65.85
2022-09-20T12:55:31.463Z,66.01
2022-09-20T12:58:06.472Z,64.13
2022-09-20T13:00:33.530Z,62.49
2022-09-20T13:03:01.795Z,62.92
2022-09-20T13:05:40.779Z,60.12
2022-09-20T13:08:20.227Z,60.10
2022-09-20T13:10:58.866Z,61.52
2022-09-20T13:13:44.217Z,62.65
2022-09-20T13:16:22.627Z,63.17
2022-09-20T13:19:06.751Z,61.79
2022-09-20T13:21:53.977Z,58.34
2022-09-20T13:24:20.950Z,54.59
2022-09-20T13:26:49.415Z,53.27
2022-09-20T13:29:38.549Z,55.56
2022-09-20T13:32:25.120Z,58.21
2022-09-20T13:35:09.733Z,54.75
2022-09-20T13:37:45.149Z,54.56
2022-09-20T13:40:22.983Z,54.10
2022-09-20T13:42:52.383Z,53.00
2022-09-20T13:45:22.031Z,52.64
2022-09-20T13:47:51.441Z,53.60
2022-09-20T13:50:21.762Z,53.51
2022-09-20T13:52:51.866Z,55.50
2022-09-20T13:55:29.510Z,56.52
2022-09-20T13:57:59.013Z,57.13
2022-09-20T14:00:25.796Z,57.19
2022-09-20T14:02:57.039Z,58.26
2022-09-20T14:05:26.935Z,57.30
2022-09-20T14:07:53.837Z,54.92
2022-09-20T14:10:40.962Z,53.65
2022-09-20T14:13:11.477Z,53.22
2022-09-20T14:15:41.942Z,52.54
2022-09-20T14:18:14.802Z,52.71
2022-09-20T14:20:43.497Z,51.76
2022-09-20T14:23:27.511Z,51.89
2022-09-20T14:26:08.213Z,52.05
2022-09-20T14:28:34.693Z,50.55
2022-09-20T14:31:14.431Z,50.71
2022-09-20T14:33:43.872Z,50.08
2022-09-20T14:36:15.129Z,49.03
2022-09-20T14:38:45.209Z,51.39
2022-09-20T14:41:13.148Z,52.95
2022-09-20T14:43:40.964Z,51.92
2022-09-20T14:46:17.302Z,51.45
2022-09-20T14:48:45.388Z,51.45
2022-09-20T14:51:25.380Z,52.02
2022-09-20T14:54:13.297Z,51.25
2022-09-20T14:56:44.270Z,49.78
2022-09-20T14:59:20.786Z,51.66
2022-09-20T15:02:12.592Z,50.09
2022-09-20T15:04:42.163Z,50.88
2022-09-20T15:07:11.710Z,51.12
2022-09-20T15:09:38.291Z,49.25
2022-09-20T15:12:19.438Z,51.24
2022-09-20T15:14:46.956Z,51.97
2022-09-20T15:17:19.308Z,52.33
2022-09-20T15:19:47.542Z,53.08
2022-09-20T15:22:14.976Z,53.04
2022-09-20T15:24:42.202Z,53.77
2022-09-20T15:27:11.182Z,54.68
2022-09-20T15:29:37.579Z,54.25
2022-09-20T15:32:05.787Z,54.98
2022-09-20T15:34:32.623Z,54.60
2022-09-20T15:36:59.000Z,55.53
2022-09-20T15:39:25.907Z,58.39
2022-09-20T15:41:52.836Z,57.46
2022-09-20T15:44:19.836Z,58.24
2022-09-20T15:46:46.548Z,56.57
2022-09-20T15:49:13.053Z,57.46
2022-09-20T15:51:39.583Z,59.83
2022-09-20T15:54:07.638Z,59.89
2022-09-20T15:56:37.175Z,60.20
2022-09-20T15:59:06.252Z,59.46
2022-09-20T16:01:37.516Z,60.94
2022-09-20T16:04:21.213Z,60.98
2022-09-20T16:06:49.866Z,58.44
2022-09-20T16:09:16.382Z,58.27
2022-09-20T16:11:42.769Z,60.80
2022-09-20T16:14:09.113Z,59.65
2022-09-20T16:16:40.046Z,61.57
2022-09-20T16:19:23.893Z,59.09
2022-09-20T16:21:57.708Z,60.12
2022-09-20T16:24:29.999Z,62.19
2022-09-20T16:26:57.436Z,62.20
2022-09-20T16:29:25.642Z,64.82
2022-09-20T16:31:53.823Z,63.48
2022-09-20T16:34:30.161Z,64.41
2022-09-20T16:37:16.787Z,65.85
2022-09-20T16:39:44.602Z,65.51
2022-09-20T16:42:13.227Z,65.01
2022-09-20T16:44:42.605Z,66.34
2022-09-20T16:47:13.449Z,63.14
2022-09-20T16:49:39.862Z,63.73
2022-09-20T16:52:07.365Z,64.74
2022-09-20T16:54:34.484Z,66.78
2022-09-20T16:57:01.681Z,66.11
2022-09-20T16:59:28.548Z,66.15
2022-09-20T17:01:55.061Z,69.23
2022-09-20T17:04:21.554Z,66.07
2022-09-20T17:06:49.671Z,67.47
2022-09-20T17:09:16.575Z,68.41
2022-09-20T17:11:47.806Z,68.73
2022-09-20T17:14:16.400Z,64.28
2022-09-20T17:16:47.410Z,63.87
2022-09-20T17:19:16.498Z,64.07
2022-09-20T17:21:45.147Z,63.83
2022-09-20T17:24:13.712Z,65.77
2022-09-20T17:26:43.516Z,65.12
2022-09-20T17:29:13.818Z,67.07
2022-09-20T17:31:42.367Z,67.97
2022-09-20T17:34:11.076Z,68.69
2022-09-20T17:36:43.141Z,68.92
2022-09-20T17:39:12.581Z,68.06
2022-09-20T17:41:44.795Z,67.26
2022-09-20T17:44:12.179Z,67.98
2022-09-20T17:46:41.355Z,69.15
2022-09-20T17:49:11.352Z,70.46
2022-09-20T17:51:39.117Z,71.29
2022-09-20T17:54:06.244Z,73.09
2022-09-20T17:56:33.359Z,74.20
2022-09-20T17:59:01.981Z,75.30
2022-09-20T18:01:29.936Z,76.16
2022-09-20T18:03:58.666Z,76.08
2022-09-20T18:06:29.984Z,76.82
2022-09-20T18:09:02.641Z,77.00
2022-09-20T18:11:31.766Z,77.07
2022-09-20T18:13:59.267Z,77.83
2022-09-20T18:16:25.819Z,78.92
2022-09-20T18:18:52.481Z,78.72
2022-09-20T18:21:21.979Z,79.13
2022-09-20T18:23:49.744Z,79.93
2022-09-20T18:26:21.872Z,79.77
2022-09-20T18:29:01.336Z,80.30
2022-09-20T18:31:35.955Z,80.41
2022-09-20T18:34:04.892Z,80.88
2022-09-20T18:36:33.895Z,81.35
2022-09-20T18:39:01.147Z,81.60
2022-09-20T18:41:33.235Z,81.65
2022-09-20T18:44:01.113Z,81.80
2022-09-20T18:46:30.522Z,82.71
2022-09-20T18:48:59.916Z,82.99
2022-09-20T18:51:28.803Z,83.13
2022-09-20T18:53:56.397Z,83.11
2022-09-20T18:56:34.317Z,83.39
2022-09-20T18:59:14.177Z,83.54
2022-09-20T19:01:53.340Z,84.45
2022-09-20T19:04:41.733Z,84.74
2022-09-20T19:07:20.280Z,84.15
2022-09-20T19:10:08.380Z,83.82
2022-09-20T19:12:46.937Z,83.88
2022-09-20T19:15:50.376Z,84.39
2022-09-20T19:18:29.064Z,84.45
2022-09-20T19:21:16.662Z,84.45
2022-09-20T19:24:10.484Z,84.02
2022-09-20T19:26:38.544Z,84.93
2022-09-20T19:29:18.935Z,85.90
2022-09-20T19:31:48.671Z,85.59
2022-09-20T19:34:24.556Z,85.49
2022-09-20T19:37:04.548Z,84.96
2022-09-20T19:39:45.661Z,85.12
2022-09-20T19:42:53.827Z,84.67
2022-09-20T19:45:55.688Z,84.78
2022-09-20T19:48:28.168Z,84.52
2022-09-20T19:50:55.048Z,84.62
2022-09-20T19:53:28.054Z,84.91
2022-09-20T19:56:04.269Z,85.47
2022-09-20T19:58:30.922Z,85.23
2022-09-20T20:00:58.345Z,85.38
2022-09-20T20:03:27.371Z,85.35
2022-09-20T20:06:27.778Z,85.13
2022-09-20T20:09:00.420Z,85.15
2022-09-20T20:11:50.975Z,85.09
2022-09-20T20:14:39.852Z,84.69
2022-09-20T20:17:37.170Z,84.88
2022-09-20T20:20:40.817Z,85.10
2022-09-20T20:23:27.814Z,85.48
2022-09-20T20:26:03.316Z,85.54
2022-09-20T20:28:30.218Z,85.57
2022-09-20T20:31:00.015Z,85.96
2022-09-20T20:33:26.800Z,85.61
2022-09-20T20:35:55.648Z,85.80
2022-09-20T20:38:26.350Z,85.98
2022-09-20T20:41:05.129Z,86.00
2022-09-20T20:43:34.625Z,86.00
2022-09-20T20:46:01.214Z,85.92
2022-09-20T20:48:27.689Z,85.97
2022-09-20T20:51:11.693Z,86.35
2022-09-20T20:53:41.160Z,85.70
2022-09-20T20:56:09.395Z,86.14
2022-09-20T20:58:37.841Z,85.78
2022-09-20T21:01:10.220Z,85.73
2022-09-20T21:03:36.965Z,85.47
2022-09-20T21:06:06.643Z,85.55
2022-09-20T21:08:38.693Z,85.71
2022-09-20T21:11:11.459Z,85.88
2022-09-20T21:13:39.432Z,85.56
2022-09-20T21:16:08.734Z,86.53
2022-09-20T21:18:35.671Z,86.44
2022-09-20T21:21:03.256Z,87.47
2022-09-20T21:23:33.872Z,87.40
2022-09-20T21:26:10.693Z,87.25
2022-09-20T21:28:42.350Z,87.20
2022-09-20T21:31:10.992Z,87.18
2022-09-20T21:33:41.285Z,86.98
2022-09-20T21:36:15.419Z,86.53
2022-09-20T21:38:43.707Z,86.69
2022-09-20T21:41:13.096Z,86.69
2022-09-20T21:43:41.734Z,86.74
2022-09-20T21:46:19.060Z,86.19
2022-09-20T21:48:47.447Z,86.48
2022-09-20T21:51:16.166Z,85.92
2022-09-20T21:53:42.493Z,86.29
2022-09-20T21:56:11.701Z,86.33
2022-09-20T21:58:40.030Z,85.93
2022-09-20T22:01:11.860Z,85.98
2022-09-20T22:03:43.645Z,85.68
2022-09-20T22:06:24.682Z,85.73
2022-09-20T22:08:51.957Z,85.98
2022-09-20T22:11:20.299Z,86.50
2022-09-20T22:13:49.640Z,86.78
2022-09-20T22:16:18.905Z,86.31
2022-09-20T22:18:46.766Z,86.50
2022-09-20T22:21:18.932Z,86.06
2022-09-20T22:23:49.175Z,86.11
2022-09-20T22:26:17.863Z,86.20
2022-09-20T22:28:44.242Z,86.23
2022-09-20T22:31:14.296Z,86.04
2022-09-20T22:33:43.250Z,86.17
2022-09-20T22:36:12.503Z,86.83
2022-09-20T22:38:38.868Z,86.40
2022-09-20T22:41:06.086Z,85.95
2022-09-20T22:43:34.034Z,86.25
2022-09-20T22:46:03.894Z,86.00
2022-09-20T22:48:31.729Z,85.85
2022-09-20T22:50:59.726Z,86.06
2022-09-20T22:53:28.153Z,86.27
2022-09-20T22:55:54.589Z,86.22
2022-09-20T22:58:21.006Z,86.54
2022-09-20T23:00:47.357Z,86.21
2022-09-20T23:03:13.739Z,86.04
2022-09-20T23:05:40.122Z,85.63
2022-09-20T23:08:06.704Z,85.74
2022-09-20T23:10:33.196Z,85.78
2022-09-20T23:12:59.554Z,87.04
2022-09-20T23:15:25.915Z,86.42
2022-09-20T23:17:52.232Z,86.55
2022-09-20T23:20:18.552Z,86.11
2022-09-20T23:22:44.976Z,85.89
2022-09-20T23:25:11.328Z,86.13
2022-09-20T23:27:37.866Z,85.59
2022-09-20T23:30:05.286Z,85.74
2022-09-20T23:32:31.670Z,86.47
2022-09-20T23:34:58.018Z,85.97
2022-09-20T23:37:24.425Z,85.79
2022-09-20T23:39:50.951Z,85.66
2022-09-20T23:42:17.301Z,87.26
2022-09-20T23:44:43.686Z,86.56
2022-09-20T23:47:10.063Z,86.76
2022-09-20T23:49:36.735Z,86.58
2022-09-20T23:52:03.161Z,86.80
2022-09-20T23:54:29.524Z,86.08
2022-09-20T23:56:55.904Z,86.33
2022-09-20T23:59:22.840Z,86.72
